EDDR 171650Z VRB02KT CAVOK 31/17 Q1012 NOSIG EDDR 171620Z 12004KT 090V160 CAVOK 31/16 Q1013 NOSIG EDDR 171550Z VRB03KT CAVOK 31/16 Q1013 NOSIG EDDR 171520Z 20003KT 130V270 CAVOK 32/17 Q1013 NOSIG EDDR 171450Z 26005KT 210V310 CAVOK 31/17 Q1013 NOSIG EDDR 171420Z 16003KT 070V240 CAVOK 31/18 Q1013 NOSIG EDDR 171350Z 25007KT 210V290 CAVOK 30/18 Q1013 NOSIG EDDR 171320Z 20007KT 160V240 CAVOK 30/18 Q1013 NOSIG EDDR 171250Z 19009KT 160V290 CAVOK 30/19 Q1014 NOSIG EDDR 171220Z 20007KT 160V270 CAVOK 29/18 Q1014 NOSIG EDDR 171150Z VRB09KT CAVOK 29/18 Q1014 NOSIG EDDR 171120Z 21010KT 190V280 CAVOK 28/18 Q1014 NOSIG EDDR 171050Z 17010KT 140V220 CAVOK 28/18 Q1014 NOSIG EDDR 171020Z 18007KT 130V250 CAVOK 28/19 Q1014 NOSIG EDDR 170950Z 19009KT 150V240 CAVOK 27/18 Q1014 NOSIG EDDR 170920Z 18008KT 140V210 CAVOK 26/18 Q1014 NOSIG EDDR 170850Z 20006KT 140V240 CAVOK 25/18 Q1014 NOSIG EDDR 170820Z 19006KT 150V240 CAVOK 25/17 Q1014 NOSIG EDDR 170750Z 21009KT CAVOK 24/17 Q1014 NOSIG EDDR 170720Z 21008KT 170V240 CAVOK 23/16 Q1014 NOSIG EDDR 170650Z 20009KT 150V230 CAVOK 23/15 Q1014 NOSIG EDDR 170620Z 18007KT 140V220 CAVOK 23/14 Q1013 NOSIG EDDR 170550Z 19005KT 160V220 CAVOK 22/14 Q1013 NOSIG EDDR 170520Z VRB02KT CAVOK 21/16 Q1013 NOSIG EDDR 170450Z 06003KT CAVOK 19/14 Q1012 NOSIG EDDR 170420Z 06005KT CAVOK 18/14 Q1012 NOSIG EDDR 170350Z 06004KT CAVOK 18/14 Q1012 NOSIG EDDR 170320Z 05004KT CAVOK 17/13 Q1012 EDDR 170250Z 05004KT CAVOK 18/13 Q1012 EDDR 170220Z 05002KT CAVOK 17/14 Q1012 EDDR 170150Z 08006KT CAVOK 19/14 Q1012 EDDR 170120Z 08007KT CAVOK 19/14 Q1012 EDDR 170050Z 07006KT CAVOK 19/14 Q1012 EDDR 170020Z 07004KT CAVOK 19/14 Q1012 EDDR 162350Z 07004KT CAVOK 20/13 Q1012 EDDR 162320Z 07004KT CAVOK 20/13 Q1013 EDDR 162250Z 07003KT CAVOK 20/13 Q1013 EDDR 162220Z 07004KT CAVOK 20/13 Q1013 EDDR 162150Z 08005KT CAVOK 21/13 Q1013 EDDR 162120Z 08004KT CAVOK 22/14 Q1013 EDDR 162050Z 08003KT CAVOK 22/13 Q1013 EDDR 162020Z 07003KT CAVOK 23/13 Q1013 NOSIG EDDR 161950Z 08002KT CAVOK 24/15 Q1013 NOSIG EDDR 161920Z 07002KT CAVOK 26/15 Q1013 NOSIG EDDR 161850Z 25001KT CAVOK 28/13 Q1013 NOSIG EDDR 161820Z 24003KT CAVOK 29/12 Q1013 NOSIG EDDR 161750Z 23004KT CAVOK 30/11 Q1013 NOSIG EDDR 161720Z 24003KT 200V270 CAVOK 30/11 Q1013 NOSIG EDDR 161650Z 25004KT 230V310 CAVOK 30/11 Q1013 NOSIG EDDR 161620Z VRB02KT CAVOK 31/11 Q1013 NOSIG EDDR 161550Z 18003KT 070V240 CAVOK 30/08 Q1013 NOSIG EDDR 161520Z 16006KT 110V220 CAVOK 31/11 Q1013 NOSIG EDDR 161450Z VRB04KT CAVOK 31/12 Q1013 NOSIG EDDR 161420Z 25005KT 200V330 CAVOK 31/14 Q1013 NOSIG EDDR 161350Z VRB05KT CAVOK 30/13 Q1014 NOSIG EDDR 161320Z 21005KT 160V250 CAVOK 31/14 Q1014 NOSIG EDDR 161250Z 17005KT 130V220 CAVOK 30/13 Q1014 NOSIG EDDR 161220Z 12004KT 060V180 CAVOK 30/13 Q1014 NOSIG EDDR 161150Z 25004KT 170V340 CAVOK 29/14 Q1014 NOSIG EDDR 161120Z VRB03KT CAVOK 29/13 Q1015 NOSIG EDDR 161050Z VRB02KT CAVOK 28/14 Q1015 NOSIG EDDR 161020Z VRB03KT CAVOK 29/13 Q1015 NOSIG EDDR 160950Z VRB02KT CAVOK 28/15 Q1015 NOSIG EDDR 160920Z VRB02KT CAVOK 27/15 Q1015 NOSIG EDDR 160850Z VRB03KT CAVOK 26/15 Q1015 NOSIG EDDR 160820Z 08003KT 350V150 CAVOK 25/15 Q1015 NOSIG EDDR 160750Z 08004KT 030V110 CAVOK 24/15 Q1015 NOSIG EDDR 160720Z 10003KT 060V130 CAVOK 22/15 Q1016 NOSIG EDDR 160650Z VRB03KT CAVOK 22/15 Q1016 NOSIG EDDR 160620Z 05005KT 020V080 CAVOK 21/16 Q1016 NOSIG EDDR 160550Z 06004KT 020V090 CAVOK 21/15 Q1016 NOSIG EDDR 160520Z 06004KT 020V110 CAVOK 20/15 Q1016 NOSIG

METAR Messwerte

Zurück zur Übersicht

Ort
m ü. NN
Zeit Temperatur Taupunkt Rel.
Luftfeuchte
Luftdruck:
Altimeter
NN
Station
Wind in Beaufort
(Knoten)
Sichtweite
(Meter)
Wolken
(Meter über Grund)
Wettererscheinung
Saarbrücken/Ensheim
320
Do 17.06. 18:50311743 %1012
1010
974
Uml 1 (2)>= 10000Nicht signifikant 
Saarbrücken/Ensheim
320
Do 17.06. 18:20311640 %1013
1011
975
OSO 2 (4)
O - SSO
>= 10000Nicht signifikant 
Saarbrücken/Ensheim
320
Do 17.06. 17:50311640 %1013
1011
975
Uml 2 (3)>= 10000Nicht signifikant 
Saarbrücken/Ensheim
320
Do 17.06. 17:20321741 %1013
1011
975
SSW 2 (3)
SO - W
>= 10000Nicht signifikant 
Saarbrücken/Ensheim
320
Do 17.06. 16:50311743 %1013
1011
975
W 2 (5)
SSW - NW
>= 10000Nicht signifikant 
Saarbrücken/Ensheim
320
Do 17.06. 16:20311846 %1013
1011
975
SSO 2 (3)
ONO - WSW
>= 10000Nicht signifikant 
Saarbrücken/Ensheim
320
Do 17.06. 15:50301849 %1013
1011
975
WSW 3 (7)
SSW - WNW
>= 10000Nicht signifikant 
Saarbrücken/Ensheim
320
Do 17.06. 15:20301849 %1013
1011
975
SSW 3 (7)
SSO - WSW
>= 10000Nicht signifikant 
Saarbrücken/Ensheim
320
Do 17.06. 14:50301952 %1014
1012
976
S 3 (9)
SSO - WNW
>= 10000Nicht signifikant 
Saarbrücken/Ensheim
320
Do 17.06. 14:20291852 %1014
1012
976
SSW 3 (7)
SSO - W
>= 10000Nicht signifikant 
Saarbrücken/Ensheim
320
Do 17.06. 13:50291852 %1014
1012
976
Uml 3 (9)>= 10000Nicht signifikant 
Saarbrücken/Ensheim
320
Do 17.06. 13:20281855 %1014
1012
976
SSW 3 (10)
S - W
>= 10000Nicht signifikant 
Saarbrücken/Ensheim
320
Do 17.06. 12:50281855 %1014
1012
976
S 3 (10)
SO - SW
>= 10000Nicht signifikant 
Saarbrücken/Ensheim
320
Do 17.06. 12:20281958 %1014
1012
976
S 3 (7)
SO - WSW
>= 10000Nicht signifikant 
Saarbrücken/Ensheim
320
Do 17.06. 11:50271858 %1014
1012
976
S 3 (9)
SSO - WSW
>= 10000Nicht signifikant 
Saarbrücken/Ensheim
320
Do 17.06. 11:20261861 %1014
1013
976
S 3 (8)
SO - SSW
>= 10000Nicht signifikant 
Saarbrücken/Ensheim
320
Do 17.06. 10:50251865 %1014
1013
976
SSW 2 (6)
SO - WSW
>= 10000Nicht signifikant 
Saarbrücken/Ensheim
320
Do 17.06. 10:20251761 %1014
1013
976
S 2 (6)
SSO - WSW
>= 10000Nicht signifikant 
Saarbrücken/Ensheim
320
Do 17.06. 09:50241765 %1014
1013
976
SSW 3 (9)>= 10000Nicht signifikant 
Saarbrücken/Ensheim
320
Do 17.06. 09:20231665 %1014
1013
976
SSW 3 (8)
S - WSW
>= 10000Nicht signifikant 
Saarbrücken/Ensheim
320
Do 17.06. 08:50231561 %1014
1013
976
SSW 3 (9)
SSO - SW
>= 10000Nicht signifikant 
Saarbrücken/Ensheim
320
Do 17.06. 08:20231457 %1013
1012
975
S 3 (7)
SO - SW
>= 10000Nicht signifikant 
Saarbrücken/Ensheim
320
Do 17.06. 07:50221460 %1013
1012
975
S 2 (5)
SSO - SW
>= 10000Nicht signifikant 
Saarbrücken/Ensheim
320
Do 17.06. 07:20211673 %1013
1012
975
Uml 1 (2)>= 10000Nicht signifikant 
Saarbrücken/Ensheim
320
Do 17.06. 06:50191473 %1012
1011
974
ONO 2 (3)>= 10000Nicht signifikant 
Saarbrücken/Ensheim
320
Do 17.06. 06:20181477 %1012
1012
974
ONO 2 (5)>= 10000Nicht signifikant 
Saarbrücken/Ensheim
320
Do 17.06. 05:50181477 %1012
1012
974
ONO 2 (4)>= 10000Nicht signifikant 
Saarbrücken/Ensheim
320
Do 17.06. 05:20171377 %1012
1012
974
NO 2 (4)>= 10000Nicht signifikant 
Saarbrücken/Ensheim
320
Do 17.06. 04:50181373 %1012
1012
974
NO 2 (4)>= 10000Nicht signifikant 
Saarbrücken/Ensheim
320
Do 17.06. 04:20171482 %1012
1012
974
NO 1 (2)>= 10000Nicht signifikant 
Saarbrücken/Ensheim
320
Do 17.06. 03:50191473 %1012
1011
974
O 2 (6)>= 10000Nicht signifikant 
Saarbrücken/Ensheim
320
Do 17.06. 03:20191473 %1012
1011
974
O 3 (7)>= 10000Nicht signifikant 
Saarbrücken/Ensheim
320
Do 17.06. 02:50191473 %1012
1011
974
ONO 2 (6)>= 10000Nicht signifikant 
Saarbrücken/Ensheim
320
Do 17.06. 02:20191473 %1012
1011
974
ONO 2 (4)>= 10000Nicht signifikant 
Saarbrücken/Ensheim
320
Do 17.06. 01:50201364 %1012
1011
974
ONO 2 (4)>= 10000Nicht signifikant 
Saarbrücken/Ensheim
320
Do 17.06. 01:20201364 %1013
1012
975
ONO 2 (4)>= 10000Nicht signifikant 
Saarbrücken/Ensheim
320
Do 17.06. 00:50201364 %1013
1012
975
ONO 2 (3)>= 10000Nicht signifikant 
Saarbrücken/Ensheim
320
Do 17.06. 00:20201364 %1013
1012
975
ONO 2 (4)>= 10000Nicht signifikant 
Saarbrücken/Ensheim
320
Mi 16.06. 23:50211360 %1013
1012
975
O 2 (5)>= 10000Nicht signifikant 
Saarbrücken/Ensheim
320
Mi 16.06. 23:20221460 %1013
1012
975
O 2 (4)>= 10000Nicht signifikant 
Saarbrücken/Ensheim
320
Mi 16.06. 22:50221357 %1013
1012
975
O 2 (3)>= 10000Nicht signifikant 
Saarbrücken/Ensheim
320
Mi 16.06. 22:20231353 %1013
1012
975
ONO 2 (3)>= 10000Nicht signifikant 
Saarbrücken/Ensheim
320
Mi 16.06. 21:50241557 %1013
1012
975
O 1 (2)>= 10000Nicht signifikant 
Saarbrücken/Ensheim
320
Mi 16.06. 21:20261551 %1013
1012
975
ONO 1 (2)>= 10000Nicht signifikant 
Saarbrücken/Ensheim
320
Mi 16.06. 20:50281340 %1013
1011
975
WSW 1 (1)>= 10000Nicht signifikant 
Saarbrücken/Ensheim
320
Mi 16.06. 20:20291235 %1013
1011
975
WSW 2 (3)>= 10000Nicht signifikant 
Saarbrücken/Ensheim
320
Mi 16.06. 19:50301131 %1013
1011
975
SW 2 (4)>= 10000Nicht signifikant 
Saarbrücken/Ensheim
320
Mi 16.06. 19:20301131 %1013
1011
975
WSW 2 (3)
SSW - W
>= 10000Nicht signifikant 
Saarbrücken/Ensheim
320
Mi 16.06. 18:50301131 %1013
1011
975
WSW 2 (4)
SW - NW
>= 10000Nicht signifikant 
Saarbrücken/Ensheim
320
Mi 16.06. 18:20311129 %1013
1011
975
Uml 1 (2)>= 10000Nicht signifikant 
Saarbrücken/Ensheim
320
Mi 16.06. 17:5030825 %1013
1011
975
S 2 (3)
ONO - WSW
>= 10000Nicht signifikant 
Saarbrücken/Ensheim
320
Mi 16.06. 17:20311129 %1013
1011
975
SSO 2 (6)
OSO - SW
>= 10000Nicht signifikant 
Saarbrücken/Ensheim
320
Mi 16.06. 16:50311231 %1013
1011
975
Uml 2 (4)>= 10000Nicht signifikant 
Saarbrücken/Ensheim
320
Mi 16.06. 16:20311436 %1013
1011
975
WSW 2 (5)
SSW - NNW
>= 10000Nicht signifikant 
Saarbrücken/Ensheim
320
Mi 16.06. 15:50301335 %1014
1012
976
Uml 2 (5)>= 10000Nicht signifikant 
Saarbrücken/Ensheim
320
Mi 16.06. 15:20311436 %1014
1012
976
SSW 2 (5)
SSO - WSW
>= 10000Nicht signifikant 
Saarbrücken/Ensheim
320
Mi 16.06. 14:50301335 %1014
1012
976
S 2 (5)
SO - SW
>= 10000Nicht signifikant 
Saarbrücken/Ensheim
320
Mi 16.06. 14:20301335 %1014
1012
976
OSO 2 (4)
ONO - S
>= 10000Nicht signifikant 
Saarbrücken/Ensheim
320
Mi 16.06. 13:50291440 %1014
1012
976
WSW 2 (4)
S - NNW
>= 10000Nicht signifikant 
Saarbrücken/Ensheim
320
Mi 16.06. 13:20291337 %1015
1013
977
Uml 2 (3)>= 10000Nicht signifikant 
Saarbrücken/Ensheim
320
Mi 16.06. 12:50281442 %1015
1013
977
Uml 1 (2)>= 10000Nicht signifikant 
Saarbrücken/Ensheim
320
Mi 16.06. 12:20291337 %1015
1013
977
Uml 2 (3)>= 10000Nicht signifikant 
Saarbrücken/Ensheim
320
Mi 16.06. 11:50281545 %1015
1013
977
Uml 1 (2)>= 10000Nicht signifikant 
Saarbrücken/Ensheim
320
Mi 16.06. 11:20271548 %1015
1013
977
Uml 1 (2)>= 10000Nicht signifikant 
Saarbrücken/Ensheim
320
Mi 16.06. 10:50261551 %1015
1014
977
Uml 2 (3)>= 10000Nicht signifikant 
Saarbrücken/Ensheim
320
Mi 16.06. 10:20251554 %1015
1014
977
O 2 (3)
N - SSO
>= 10000Nicht signifikant 
Saarbrücken/Ensheim
320
Mi 16.06. 09:50241557 %1015
1014
977
O 2 (4)
NNO - OSO
>= 10000Nicht signifikant 
Saarbrücken/Ensheim
320
Mi 16.06. 09:20221565 %1016
1015
978
O 2 (3)
ONO - SO
>= 10000Nicht signifikant 
Saarbrücken/Ensheim
320
Mi 16.06. 08:50221565 %1016
1015
978
Uml 2 (3)>= 10000Nicht signifikant 
Saarbrücken/Ensheim
320
Mi 16.06. 08:20211673 %1016
1015
978
NO 2 (5)
NNO - O
>= 10000Nicht signifikant 
Saarbrücken/Ensheim
320
Mi 16.06. 07:50211569 %1016
1015
978
ONO 2 (4)
NNO - O
>= 10000Nicht signifikant 
Saarbrücken/Ensheim
320
Mi 16.06. 07:20201573 %1016
1015
978
ONO 2 (4)
NNO - OSO
>= 10000Nicht signifikant 

Altimeter: Einstellung am Altimeter (Höhenmesser), die Höhe 0 muss auf diesen Luftdruckwert zeigen, damit das Gerät die Stationshöhe richtig anzeigt.

NN: Luftdruck reduziert auf "Normal Null", auf Meereshöhe, dieser von der Temperatur abhängige Wert wird bisweilen unkorrekt einfach als "Luftdruck" bezeichnet. Eigentlich nur eine fiktive Größe, die es erlaubt, Stationen auf unterschiedlichen Höhen miteinander zu vergleichen.

Station: Realer Luftdruck an der Station.